createdAt,value
2023-03-22T00:04:16.176Z,10.39
2023-03-22T00:09:18.298Z,10.43
2023-03-22T00:14:19.726Z,10.50
2023-03-22T00:19:21.183Z,10.48
2023-03-22T00:24:22.988Z,10.53
2023-03-22T00:29:24.472Z,10.50
2023-03-22T00:34:27.115Z,10.43
2023-03-22T00:39:28.591Z,10.32
2023-03-22T00:44:30.156Z,10.42
2023-03-22T00:49:31.617Z,10.35
2023-03-22T00:54:33.117Z,10.36
2023-03-22T00:59:38.450Z,10.28
2023-03-22T01:04:45.769Z,10.30
2023-03-22T01:09:51.948Z,10.13
2023-03-22T01:14:53.370Z,10.09
2023-03-22T01:19:54.805Z,10.18
2023-03-22T01:24:56.309Z,10.24
2023-03-22T01:29:57.755Z,10.27
2023-03-22T01:34:59.224Z,10.21
2023-03-22T01:40:00.728Z,10.11
2023-03-22T01:45:14.330Z,10.13
2023-03-22T01:50:17.361Z,10.32
2023-03-22T01:55:22.655Z,10.40
2023-03-22T02:00:24.174Z,10.41
2023-03-22T02:05:26.416Z,10.57
2023-03-22T02:10:28.562Z,10.50
2023-03-22T02:15:33.882Z,10.59
2023-03-22T02:20:53.005Z,10.56
2023-03-22T02:25:57.229Z,10.59
2023-03-22T02:31:27.868Z,10.40
2023-03-22T02:36:40.224Z,10.35
2023-03-22T02:41:47.808Z,10.49
2023-03-22T02:47:34.278Z,10.42
2023-03-22T02:52:54.420Z,10.39
2023-03-22T02:57:58.356Z,10.45
2023-03-22T03:03:11.342Z,10.39
2023-03-22T03:08:15.454Z,10.44
2023-03-22T03:13:19.135Z,10.45
2023-03-22T03:18:41.277Z,10.39
2023-03-22T03:23:56.043Z,10.36
2023-03-22T03:29:00.724Z,10.32
2023-03-22T03:34:19.373Z,10.28
2023-03-22T03:39:24.126Z,10.24
2023-03-22T03:44:26.386Z,10.39
2023-03-22T03:49:28.077Z,10.52
2023-03-22T03:54:29.514Z,10.58
2023-03-22T03:59:31.122Z,10.56
2023-03-22T04:04:34.793Z,10.50
2023-03-22T04:09:38.442Z,10.50
2023-03-22T04:14:39.890Z,10.49
2023-03-22T04:19:42.221Z,10.44
2023-03-22T04:24:49.975Z,10.50
2023-03-22T04:29:52.329Z,10.49
2023-03-22T04:34:53.748Z,10.35
2023-03-22T04:39:55.212Z,10.27
2023-03-22T04:44:56.641Z,10.32
2023-03-22T04:49:58.080Z,10.35
2023-03-22T04:54:59.516Z,10.33
2023-03-22T05:00:01.005Z,10.24
2023-03-22T05:05:02.462Z,10.23
2023-03-22T05:10:04.193Z,10.09
2023-03-22T05:15:06.685Z,10.02
2023-03-22T05:20:10.219Z,10.03
2023-03-22T05:25:11.740Z,10.03
2023-03-22T05:30:13.414Z,10.07
2023-03-22T05:35:14.953Z,10.02
2023-03-22T05:40:16.959Z,10.04
2023-03-22T05:45:18.866Z,9.95
2023-03-22T05:50:22.832Z,10.14
2023-03-22T05:55:24.755Z,10.31
2023-03-22T06:00:27.075Z,10.40
2023-03-22T06:05:30.306Z,10.51
2023-03-22T06:10:31.731Z,10.60
2023-03-22T06:15:33.186Z,10.63
2023-03-22T06:20:35.371Z,10.63
2023-03-22T06:25:37.156Z,10.76
2023-03-22T06:30:39.047Z,10.73
2023-03-22T06:35:40.898Z,10.92
2023-03-22T06:40:42.515Z,11.00
2023-03-22T06:45:46.925Z,11.13
2023-03-22T06:50:48.461Z,11.51
2023-03-22T06:55:49.931Z,11.77
2023-03-22T07:00:52.099Z,11.70
2023-03-22T07:05:53.577Z,11.83
2023-03-22T07:10:55.016Z,12.07
2023-03-22T07:15:57.775Z,12.02
2023-03-22T07:20:59.874Z,12.30
2023-03-22T07:26:01.545Z,12.30
2023-03-22T07:31:05.947Z,12.34
2023-03-22T07:36:09.004Z,12.49
2023-03-22T07:41:10.551Z,12.73
2023-03-22T07:46:12.261Z,12.89
2023-03-22T07:51:13.722Z,13.02
2023-03-22T07:56:15.392Z,13.13
2023-03-22T08:01:16.796Z,13.39
2023-03-22T08:06:21.544Z,13.50
2023-03-22T08:11:23.072Z,13.87
2023-03-22T08:16:24.607Z,14.08
2023-03-22T08:21:26.196Z,13.93
2023-03-22T08:26:27.837Z,14.09
2023-03-22T08:31:29.563Z,14.32
2023-03-22T08:36:31.098Z,14.55
2023-03-22T08:41:32.528Z,14.57
2023-03-22T08:46:34.083Z,14.58
2023-03-22T08:51:35.917Z,14.79
2023-03-22T08:56:37.916Z,14.98
2023-03-22T09:01:39.474Z,15.12
2023-03-22T09:06:44.202Z,15.12
2023-03-22T09:11:46.272Z,15.25
2023-03-22T09:16:47.884Z,15.33
2023-03-22T09:21:50.008Z,15.40
2023-03-22T09:26:51.578Z,15.32
2023-03-22T09:31:53.591Z,15.26
2023-03-22T09:36:56.735Z,15.43
2023-03-22T09:42:04.093Z,15.62
2023-03-22T09:47:08.254Z,16.04
2023-03-22T09:52:14.964Z,15.72
2023-03-22T09:57:29.866Z,15.94
2023-03-22T10:02:49.225Z,16.02
2023-03-22T10:07:59.964Z,16.31
2023-03-22T10:13:10.251Z,16.45
2023-03-22T10:18:18.049Z,16.70
2023-03-22T10:23:46.694Z,16.77
2023-03-22T10:28:59.337Z,16.72
2023-03-22T10:34:23.907Z,16.74
2023-03-22T10:39:29.348Z,16.63
2023-03-22T10:44:37.042Z,16.65
2023-03-22T10:49:54.758Z,16.98
2023-03-22T10:55:01.243Z,16.92
2023-03-22T11:00:11.375Z,16.88
2023-03-22T11:05:25.310Z,16.91
2023-03-22T11:10:29.560Z,17.02
2023-03-22T11:15:33.247Z,16.70
2023-03-22T11:20:35.058Z,16.84
2023-03-22T11:25:43.878Z,17.16
2023-03-22T11:31:06.216Z,17.15
2023-03-22T11:36:18.216Z,17.38
2023-03-22T11:41:36.779Z,17.32
2023-03-22T11:46:39.116Z,17.19
2023-03-22T11:51:40.984Z,17.20
2023-03-22T11:56:45.539Z,17.49
2023-03-22T12:01:53.247Z,17.44
2023-03-22T12:06:58.261Z,17.42
2023-03-22T12:12:01.721Z,17.58
2023-03-22T12:17:11.176Z,17.48
2023-03-22T12:22:24.729Z,17.67
2023-03-22T12:27:38.727Z,17.84
2023-03-22T12:32:54.299Z,17.71
2023-03-22T12:37:58.314Z,17.78
2023-03-22T12:43:17.918Z,17.93
2023-03-22T12:48:28.059Z,17.97
2023-03-22T12:53:42.656Z,18.24
2023-03-22T12:58:49.845Z,18.07
2023-03-22T13:03:53.866Z,18.31
2023-03-22T13:09:16.234Z,18.24
2023-03-22T13:14:52.740Z,18.31
2023-03-22T13:20:20.078Z,18.43
2023-03-22T13:25:29.832Z,18.39
2023-03-22T13:30:49.417Z,18.50
2023-03-22T13:35:54.985Z,18.30
2023-03-22T13:41:14.783Z,18.32
2023-03-22T13:46:22.222Z,18.36
2023-03-22T13:51:32.139Z,18.43
2023-03-22T13:56:42.434Z,18.51
2023-03-22T14:01:50.177Z,18.50
2023-03-22T14:06:57.344Z,18.54
2023-03-22T14:12:03.368Z,18.48
2023-03-22T14:17:17.029Z,18.40
